Time;durP1;ratioP1;P1;durP2;ratioP2;P2;SDS_P1;SDS_P2;PMS_P1;PMS_P2;Temp;Humidity;BMP_temperature;BMP_pressure;BME280_temperature;BME280_humidity;BME280_pressure;Samples;Min_cycle;Max_cycle;Signal;HPM_P1;HPM_P2
2021/11/13 03:45:24;;;;;;;130.57;53.03;;;4.70;99.90;;;;;;5803873;24;20420;-79
2021/11/13 03:47:50;;;;;;;119.85;54.05;;;4.70;99.90;;;;;;4787176;29;20066;-80
2021/11/13 03:50:16;;;;;;;121.45;52.10;;;4.80;99.90;;;;;;4816490;29;20451;-80
2021/11/13 03:52:42;;;;;;;110.10;52.53;;;4.80;99.90;;;;;;4801560;29;20042;-80
2021/11/13 03:55:08;;;;;;;123.85;54.78;;;4.80;99.90;;;;;;4816370;29;20075;-80
2021/11/13 03:57:34;;;;;;;114.53;51.63;;;4.80;99.90;;;;;;4816643;29;20315;-80
2021/11/13 04:00:00;;;;;;;115.63;52.20;;;4.90;99.90;;;;;;4801155;29;20030;-80
2021/11/13 04:02:26;;;;;;;104.68;50.15;;;4.90;99.90;;;;;;4813482;29;20035;-80
2021/11/13 04:04:52;;;;;;;117.75;52.53;;;4.90;99.90;;;;;;4795601;29;20124;-80
2021/11/13 04:07:17;;;;;;;112.75;50.47;;;4.90;99.90;;;;;;4816316;29;20046;-80
2021/11/13 04:09:43;;;;;;;117.80;53.35;;;5.00;99.90;;;;;;4816258;29;20035;-80
2021/11/13 04:12:10;;;;;;;116.40;53.38;;;5.00;99.90;;;;;;4801046;29;20046;-80
2021/11/13 04:14:39;;;;;;;117.97;52.95;;;5.00;99.90;;;;;;4816030;29;20042;-80
2021/11/13 04:17:05;;;;;;;121.95;54.35;;;5.00;99.90;;;;;;4831155;29;20031;-80
2021/11/13 04:19:30;;;;;;;122.97;55.50;;;5.00;99.90;;;;;;4801005;29;20033;-80
2021/11/13 04:21:57;;;;;;;123.10;53.38;;;5.00;99.90;;;;;;4816126;29;20038;-80
2021/11/13 04:24:23;;;;;;;133.95;56.03;;;5.10;99.90;;;;;;4800910;29;20334;-80
2021/11/13 04:26:49;;;;;;;120.15;54.00;;;5.10;99.90;;;;;;4812866;29;20104;-80
2021/11/13 04:29:15;;;;;;;129.38;56.85;;;5.10;99.90;;;;;;4797913;29;20047;-80
2021/11/13 04:31:41;;;;;;;120.68;52.70;;;5.20;99.90;;;;;;4805550;29;20326;-80
2021/11/13 04:34:13;;;;;;;127.55;55.50;;;5.20;99.90;;;;;;4788507;29;20229;-80
2021/11/13 04:36:39;;;;;;;113.75;53.63;;;5.20;99.90;;;;;;4800816;29;20034;-80
2021/11/13 04:39:07;;;;;;;132.65;55.13;;;5.20;99.90;;;;;;4800611;29;20110;-80
2021/11/13 04:41:34;;;;;;;123.32;54.33;;;5.20;99.90;;;;;;4800381;29;20054;-80
2021/11/13 04:43:59;;;;;;;;;;;5.20;99.90;;;;;;4812758;29;20054;-80
2021/11/13 04:46:25;;;;;;;120.97;54.30;;;5.20;99.90;;;;;;4812093;29;20209;-80
2021/11/13 04:48:51;;;;;;;127.80;55.80;;;5.30;99.90;;;;;;4830580;29;20039;-80
2021/11/13 04:51:17;;;;;;;132.90;56.90;;;5.30;99.90;;;;;;4815612;29;20030;-80
2021/11/13 04:53:43;;;;;;;128.50;55.67;;;5.30;99.90;;;;;;4816445;29;20110;-80
2021/11/13 04:56:09;;;;;;;133.15;57.53;;;5.30;99.90;;;;;;4815571;29;20027;-80
2021/11/13 04:58:34;;;;;;;126.00;55.38;;;5.30;99.90;;;;;;4815612;29;20027;-80
2021/11/13 05:01:00;;;;;;;132.20;55.72;;;5.40;99.90;;;;;;4815062;29;20035;-80
2021/11/13 05:03:26;;;;;;;135.27;57.25;;;5.40;99.90;;;;;;4815423;29;20034;-80
2021/11/13 05:05:52;;;;;;;132.00;58.25;;;5.40;99.90;;;;;;4800323;29;20057;-80
2021/11/13 05:08:18;;;;;;;143.93;59.38;;;5.40;99.90;;;;;;4800208;29;20038;-80
2021/11/13 05:10:48;;;;;;;143.32;58.58;;;5.50;99.90;;;;;;4815229;29;20219;-80
2021/11/13 05:13:14;;;;;;;146.32;59.65;;;5.50;99.90;;;;;;4800656;29;20039;-80
2021/11/13 05:15:40;;;;;;;149.25;62.75;;;5.50;99.90;;;;;;4816021;29;20037;-80
2021/11/13 05:18:06;;;;;;;143.10;58.92;;;5.60;99.90;;;;;;4814989;29;20422;-80
2021/11/13 05:20:32;;;;;;;141.88;58.35;;;5.60;99.90;;;;;;4830335;29;20038;-80
2021/11/13 05:22:58;;;;;;;150.38;58.67;;;5.60;99.90;;;;;;4815091;29;20368;-80
2021/11/13 05:25:24;;;;;;;130.27;55.92;;;5.50;99.90;;;;;;4815103;29;20054;-80
2021/11/13 05:27:51;;;;;;;136.18;57.70;;;5.60;99.90;;;;;;4814825;29;20062;-80
2021/11/13 05:30:17;;;;;;;;;;;5.60;99.90;;;;;;4815107;29;20034;-80
2021/11/13 05:32:43;;;;;;;149.40;58.13;;;5.60;99.90;;;;;;4814657;29;20216;-80
2021/11/13 05:35:10;;;;;;;153.02;57.05;;;5.60;99.90;;;;;;4814847;29;20098;-80
2021/11/13 05:37:37;;;;;;;;;;;5.60;99.90;;;;;;4814690;29;20435;-80
2021/11/13 05:40:05;;;;;;;143.00;54.67;;;5.60;99.90;;;;;;4814883;29;19909;-80
2021/11/13 05:42:32;;;;;;;135.80;53.60;;;5.60;99.90;;;;;;4830048;29;20370;-80
2021/11/13 05:44:58;;;;;;;136.17;54.17;;;5.70;99.90;;;;;;4814542;29;20034;-80
2021/11/13 05:47:24;;;;;;;132.27;52.40;;;5.70;99.90;;;;;;4814324;29;20449;-80
2021/11/13 05:49:51;;;;;;;144.82;56.33;;;5.60;99.90;;;;;;4814915;29;20043;-80
2021/11/13 05:52:17;;;;;;;133.63;52.97;;;5.70;99.90;;;;;;4814667;29;20249;-80
2021/11/13 05:54:43;;;;;;;132.45;53.70;;;5.70;99.90;;;;;;4814596;29;20043;-80
2021/11/13 05:57:09;;;;;;;134.13;51.38;;;5.70;99.90;;;;;;4814644;29;20046;-80
2021/11/13 05:59:35;;;;;;;134.45;52.90;;;5.70;99.90;;;;;;4814722;29;20060;-80
2021/11/13 06:02:01;;;;;;;139.07;52.85;;;5.80;99.90;;;;;;4814274;29;20416;-80
2021/11/13 06:04:26;;;;;;;132.13;53.20;;;5.80;99.90;;;;;;4814697;29;20345;-80
2021/11/13 06:06:52;;;;;;;137.23;53.13;;;5.80;99.90;;;;;;4799425;29;20031;-80
2021/11/13 06:09:18;;;;;;;132.07;52.42;;;5.80;99.90;;;;;;4799433;29;20080;-80
2021/11/13 06:11:44;;;;;;;133.98;54.17;;;5.80;99.90;;;;;;4811465;29;20027;-80
2021/11/13 06:14:09;;;;;;;134.70;50.97;;;5.80;99.90;;;;;;4811078;29;20030;-80
2021/11/13 06:16:35;;;;;;;129.68;50.88;;;5.90;99.90;;;;;;4810313;29;20039;-80
2021/11/13 06:19:01;;;;;;;132.02;53.38;;;5.90;99.90;;;;;;4811246;29;20038;-80
2021/11/13 06:21:27;;;;;;;128.35;51.17;;;5.90;99.90;;;;;;4792884;30;20035;-80
2021/11/13 06:23:53;;;;;;;141.35;53.55;;;5.90;99.90;;;;;;4826697;29;20253;-80
2021/11/13 06:26:19;;;;;;;143.35;55.10;;;5.90;99.90;;;;;;4799251;29;20238;-80
2021/11/13 06:28:45;;;;;;;143.60;52.95;;;5.90;99.90;;;;;;4799113;29;20034;-80
2021/11/13 06:31:13;;;;;;;145.75;53.50;;;6.00;99.90;;;;;;4798957;29;20027;-80
2021/11/13 06:33:39;;;;;;;145.87;52.97;;;6.00;99.90;;;;;;4828967;29;20033;-80
2021/11/13 06:36:05;;;;;;;138.90;52.95;;;6.00;99.90;;;;;;4795708;29;20032;-80
2021/11/13 06:38:31;;;;;;;124.07;52.67;;;6.00;99.90;;;;;;4799205;29;20026;-80
2021/11/13 06:40:57;;;;;;;140.37;54.47;;;5.90;99.90;;;;;;4817092;29;20072;-81
2021/11/13 06:43:23;;;;;;;141.85;51.38;;;6.00;99.90;;;;;;4784135;29;20346;-80
2021/11/13 06:45:49;;;;;;;140.93;52.88;;;6.00;99.90;;;;;;4798110;29;20085;-81
2021/11/13 06:48:20;;;;;;;150.85;55.55;;;6.00;99.90;;;;;;4811851;29;20367;-79
2021/11/13 06:50:47;;;;;;;151.50;52.38;;;6.00;99.90;;;;;;4817159;29;20039;-81
2021/11/13 06:53:13;;;;;;;159.32;53.70;;;6.00;99.90;;;;;;4796728;29;20031;-81
2021/11/13 06:55:39;;;;;;;143.87;53.70;;;6.00;99.90;;;;;;4814997;29;20035;-81
2021/11/13 06:58:05;;;;;;;155.23;54.78;;;5.90;99.90;;;;;;4822866;29;20048;-79
2021/11/13 07:00:31;;;;;;;164.88;56.20;;;5.90;99.90;;;;;;4823824;29;20031;-79
2021/11/13 07:03:00;;;;;;;153.77;53.37;;;5.90;99.90;;;;;;4815879;29;20230;-79
2021/11/13 07:05:27;;;;;;;171.63;60.90;;;5.90;99.90;;;;;;4814494;29;20314;-80
2021/11/13 07:07:55;;;;;;;185.80;62.85;;;5.90;99.90;;;;;;4815895;29;20281;-79
2021/11/13 07:10:21;;;;;;;181.73;64.30;;;5.80;99.90;;;;;;4796567;29;20056;-79
2021/11/13 07:12:50;;;;;;;172.38;64.28;;;5.70;99.90;;;;;;4815302;29;20058;-79
2021/11/13 07:15:17;;;;;;;171.40;60.30;;;5.70;99.90;;;;;;4801103;29;20035;-80
2021/11/13 07:17:44;;;;;;;155.77;58.72;;;5.70;99.90;;;;;;4817029;29;20062;-79
2021/11/13 07:20:13;;;;;;;159.48;59.30;;;5.80;99.90;;;;;;4815841;29;20110;-79
2021/11/13 07:22:40;;;;;;;157.30;58.42;;;5.80;99.90;;;;;;4821108;29;20058;-79
2021/11/13 07:25:12;;;;;;;;;;;5.80;99.90;;;;;;4815378;29;20366;-79
2021/11/13 07:27:39;;;;;;;147.48;55.97;;;5.80;99.90;;;;;;4815300;29;19920;-79
2021/11/13 07:30:05;;;;;;;148.52;56.13;;;5.90;99.90;;;;;;4802963;29;20058;-79
2021/11/13 07:32:32;;;;;;;154.75;56.83;;;5.90;99.90;;;;;;4831783;29;20042;-79
2021/11/13 07:34:58;;;;;;;149.20;56.90;;;5.90;99.90;;;;;;4802774;29;20062;-79
2021/11/13 07:37:25;;;;;;;159.30;58.58;;;5.80;99.90;;;;;;4830152;29;20042;-81
2021/11/13 07:39:54;;;;;;;144.60;54.92;;;5.90;99.90;;;;;;4817173;29;20053;-79
2021/11/13 07:42:20;;;;;;;158.52;57.78;;;5.90;99.90;;;;;;4829410;29;20063;-79
2021/11/13 07:44:47;;;;;;;155.68;57.83;;;5.90;99.90;;;;;;4817519;29;20034;-79
2021/11/13 07:47:13;;;;;;;151.00;55.47;;;5.90;99.90;;;;;;4817556;29;20119;-79
2021/11/13 07:49:39;;;;;;;141.10;55.50;;;5.90;99.90;;;;;;4829341;29;20314;-79
2021/11/13 07:52:06;;;;;;;132.73;53.33;;;6.00;99.90;;;;;;4831060;29;20057;-79
2021/11/13 07:54:32;;;;;;;134.85;54.78;;;6.10;99.90;;;;;;4802640;29;20059;-79
2021/11/13 07:56:58;;;;;;;153.55;57.28;;;6.10;99.90;;;;;;4815574;29;20214;-80
2021/11/13 07:59:24;;;;;;;127.25;51.95;;;6.20;99.90;;;;;;4814885;29;20035;-80
2021/11/13 08:01:50;;;;;;;159.35;57.45;;;6.20;99.90;;;;;;4812248;29;20022;-79
2021/11/13 08:04:16;;;;;;;158.38;61.00;;;6.20;99.90;;;;;;4822349;29;20183;-79
2021/11/13 08:06:42;;;;;;;159.23;66.18;;;6.20;99.90;;;;;;4820157;29;20337;-80
2021/11/13 08:09:08;;;;;;;156.82;62.42;;;6.10;99.90;;;;;;4797281;29;20050;-80
2021/11/13 08:11:34;;;;;;;147.57;57.80;;;6.20;99.90;;;;;;4815518;29;20042;-79
2021/11/13 08:14:00;;;;;;;139.77;56.90;;;6.20;99.90;;;;;;4814889;29;20441;-79
2021/11/13 08:16:25;;;;;;;130.63;51.55;;;6.20;99.90;;;;;;4817170;29;20062;-79
2021/11/13 08:18:51;;;;;;;136.82;53.92;;;6.20;99.90;;;;;;4815076;29;20061;-79
2021/11/13 08:21:17;;;;;;;132.68;54.92;;;6.30;99.90;;;;;;4815144;29;20069;-80
2021/11/13 08:23:43;;;;;;;133.55;58.13;;;6.30;99.90;;;;;;4829918;29;20034;-80
2021/11/13 08:26:10;;;;;;;136.00;56.00;;;6.40;99.90;;;;;;4814917;29;20038;-80
2021/11/13 08:28:36;;;;;;;129.88;53.47;;;6.40;99.90;;;;;;4799961;29;20042;-80
2021/11/13 08:31:02;;;;;;;123.47;53.53;;;6.50;99.90;;;;;;4815088;29;20066;-79
2021/11/13 08:33:29;;;;;;;118.00;50.20;;;6.50;99.90;;;;;;4813199;29;20027;-79
2021/11/13 08:35:56;;;;;;;140.68;59.65;;;6.50;99.90;;;;;;4814693;29;20106;-80
2021/11/13 08:38:23;;;;;;;130.47;54.70;;;6.50;99.90;;;;;;4814796;29;20038;-80
2021/11/13 08:40:54;;;;;;;119.57;49.25;;;6.60;99.90;;;;;;4815045;29;20318;-80
2021/11/13 08:43:21;;;;;;;125.72;52.45;;;6.60;99.90;;;;;;4815003;29;20226;-80
2021/11/13 08:45:47;;;;;;;;;;;6.60;99.90;;;;;;4815020;29;20054;-80
2021/11/13 08:48:14;;;;;;;134.95;55.83;;;6.70;99.90;;;;;;4814630;29;19936;-80
2021/11/13 08:50:40;;;;;;;120.00;51.17;;;6.70;99.90;;;;;;4814113;29;20083;-80
2021/11/13 08:53:06;;;;;;;121.40;52.37;;;6.70;99.90;;;;;;4814086;29;20042;-80
2021/11/13 08:55:35;;;;;;;127.90;49.53;;;6.70;99.90;;;;;;4814321;29;20027;-80
2021/11/13 08:58:03;;;;;;;114.15;50.28;;;6.70;99.90;;;;;;4812897;29;20023;-80
2021/11/13 09:00:31;;;;;;;124.38;49.80;;;6.70;99.90;;;;;;4813659;29;20030;-80
2021/11/13 09:02:59;;;;;;;106.97;46.85;;;6.80;99.90;;;;;;4814224;29;20038;-80
2021/11/13 09:05:26;;;;;;;137.82;56.58;;;6.90;99.90;;;;;;4814317;29;20330;-80
2021/11/13 09:07:54;;;;;;;142.32;57.95;;;6.90;99.90;;;;;;4812320;29;20092;-80
2021/11/13 09:10:21;;;;;;;128.18;52.58;;;6.90;99.90;;;;;;4813404;29;20035;-80
2021/11/13 09:12:47;;;;;;;125.30;48.90;;;6.80;99.90;;;;;;4813388;29;20038;-80
2021/11/13 09:15:17;;;;;;;97.57;43.53;;;6.90;99.90;;;;;;4798017;29;20211;-80
2021/11/13 09:17:44;;;;;;;112.93;46.08;;;6.90;99.90;;;;;;4813313;29;20023;-80
2021/11/13 09:20:13;;;;;;;103.93;42.95;;;7.00;99.90;;;;;;4797478;29;20038;-80
2021/11/13 09:22:39;;;;;;;88.35;41.22;;;7.00;99.90;;;;;;4825110;29;20067;-80
2021/11/13 09:25:09;;;;;;;111.68;45.13;;;7.00;99.90;;;;;;4813113;29;20261;-80
2021/11/13 09:27:41;;;;;;;116.82;46.85;;;6.90;99.90;;;;;;4811281;29;20070;-80
2021/11/13 09:30:14;;;;;;;111.20;46.17;;;7.00;99.90;;;;;;4813768;29;20411;-80
2021/11/13 09:32:43;;;;;;;100.57;41.25;;;7.00;99.90;;;;;;4813632;29;20039;-81
2021/11/13 09:35:10;;;;;;;104.60;44.78;;;7.00;99.90;;;;;;4813708;29;20113;-81
2021/11/13 09:37:37;;;;;;;;;;;7.00;99.90;;;;;;4813017;29;20030;-80
2021/11/13 09:40:06;;;;;;;95.03;38.70;;;7.10;99.90;;;;;;4810938;29;19910;-81
2021/11/13 09:42:32;;;;;;;97.38;38.30;;;7.00;99.90;;;;;;4827323;29;20030;-80
2021/11/13 09:44:58;;;;;;;93.22;38.35;;;7.10;99.90;;;;;;4798449;29;20045;-80
2021/11/13 09:47:24;;;;;;;83.15;36.60;;;7.10;99.90;;;;;;4813297;29;20054;-80
2021/11/13 09:49:50;;;;;;;65.32;30.15;;;7.10;99.90;;;;;;4798625;29;20330;-80
2021/11/13 09:52:16;;;;;;;76.60;33.97;;;7.10;99.90;;;;;;4810364;29;20074;-80
2021/11/13 09:54:44;;;;;;;82.55;35.90;;;7.10;99.90;;;;;;4795793;29;20226;-80
2021/11/13 09:57:10;;;;;;;94.38;40.03;;;7.10;99.90;;;;;;4783465;29;20292;-81
2021/11/13 09:59:37;;;;;;;73.78;34.92;;;7.20;99.90;;;;;;4814205;29;20066;-81
2021/11/13 10:02:04;;;;;;;91.70;37.17;;;7.20;99.90;;;;;;4813730;29;20031;-80
2021/11/13 10:04:30;;;;;;;81.82;35.97;;;7.30;99.90;;;;;;4813882;29;20047;-80
2021/11/13 10:06:56;;;;;;;81.43;36.28;;;7.30;99.90;;;;;;4813418;29;20034;-80
2021/11/13 10:09:22;;;;;;;75.45;33.38;;;7.30;99.90;;;;;;4813639;29;20392;-81
2021/11/13 10:11:50;;;;;;;77.32;34.20;;;7.30;99.90;;;;;;4813671;29;20494;-80
2021/11/13 10:14:30;;;;;;;62.78;32.13;;;7.30;99.90;;;;;;4813849;29;20078;-80
2021/11/13 10:16:55;;;;;;;70.70;34.47;;;7.30;99.90;;;;;;4813572;29;20034;-80
2021/11/13 10:19:21;;;;;;;85.25;38.35;;;7.40;99.90;;;;;;4828759;29;20061;-80
2021/11/13 10:21:52;;;;;;;82.28;38.05;;;7.40;99.90;;;;;;4798612;29;20035;-80
2021/11/13 10:24:25;;;;;;;90.07;40.75;;;7.40;99.90;;;;;;4816806;29;20039;-80
2021/11/13 10:26:54;;;;;;;84.30;38.22;;;7.40;99.90;;;;;;4813944;29;20247;-80
2021/11/13 10:29:29;;;;;;;81.00;37.35;;;7.30;99.90;;;;;;4798683;29;20062;-80
2021/11/13 10:31:58;;;;;;;80.60;39.58;;;7.30;99.90;;;;;;4801210;29;20068;-79
2021/11/13 10:34:34;;;;;;;88.25;40.30;;;7.30;99.90;;;;;;4799944;29;20043;-79
2021/11/13 10:37:04;;;;;;;86.60;40.83;;;7.30;99.90;;;;;;4812811;29;20110;-78
2021/11/13 10:39:34;;;;;;;90.03;41.05;;;7.30;99.90;;;;;;4816099;29;20030;-79
2021/11/13 10:42:11;;;;;;;77.18;37.88;;;7.40;99.90;;;;;;4815731;29;20019;-79
2021/11/13 10:44:41;;;;;;;91.35;40.75;;;7.30;99.90;;;;;;4816496;29;20348;-79
2021/11/13 10:47:23;;;;;;;76.22;37.83;;;7.50;99.90;;;;;;4816374;29;20062;-79
2021/11/13 10:49:51;;;;;;;83.45;37.78;;;7.50;99.90;;;;;;4831542;29;20035;-79
2021/11/13 10:52:19;;;;;;;75.20;35.63;;;7.50;99.90;;;;;;4816514;29;20054;-79
2021/11/13 10:54:48;;;;;;;79.45;36.55;;;7.50;99.90;;;;;;4816944;29;20046;-79
2021/11/13 10:57:27;;;;;;;75.30;35.03;;;7.50;99.90;;;;;;4816667;29;20344;-79
2021/11/13 10:59:54;;;;;;;77.90;35.78;;;7.50;99.90;;;;;;4813018;29;20337;-79
2021/11/13 11:02:22;;;;;;;74.07;35.17;;;7.50;99.90;;;;;;4816774;29;20018;-79
2021/11/13 11:04:49;;;;;;;66.68;32.67;;;7.50;99.90;;;;;;4831716;29;20307;-79
2021/11/13 11:07:20;;;;;;;62.13;29.45;;;7.50;99.90;;;;;;4816515;29;20226;-79
2021/11/13 11:10:11;;;;;;;61.83;30.58;;;7.60;99.90;;;;;;4816459;29;20077;-79
2021/11/13 11:12:39;;;;;;;59.05;27.85;;;7.60;99.90;;;;;;4808969;29;20050;-79
2021/11/13 11:15:11;;;;;;;55.08;27.48;;;7.60;99.90;;;;;;4817685;29;20311;-79
2021/11/13 11:17:38;;;;;;;55.72;26.15;;;7.60;99.90;;;;;;4816361;29;20105;-79
2021/11/13 11:20:14;;;;;;;45.25;24.25;;;7.50;99.90;;;;;;4813772;29;20035;-79
2021/11/13 11:22:40;;;;;;;52.75;25.42;;;7.50;99.90;;;;;;4811020;29;20345;-79
2021/11/13 11:25:08;;;;;;;50.23;25.63;;;7.50;99.90;;;;;;4798234;29;20043;-78
2021/11/13 11:27:39;;;;;;;51.53;26.23;;;7.50;99.90;;;;;;4807604;29;20644;-79
2021/11/13 11:30:23;;;;;;;64.97;27.40;;;7.60;99.90;;;;;;4825882;29;20103;-79
2021/11/13 11:32:52;;;;;;;62.17;27.08;;;7.60;99.90;;;;;;4831182;29;20261;-79
2021/11/13 11:35:25;;;;;;;56.20;25.73;;;7.50;99.90;;;;;;4830640;29;20035;-79
2021/11/13 11:37:57;;;;;;;54.78;25.38;;;7.50;99.90;;;;;;4817557;29;20042;-78
2021/11/13 11:40:25;;;;;;;56.17;26.23;;;7.50;99.90;;;;;;4816122;29;20042;-79
2021/11/13 11:42:51;;;;;;;55.10;26.27;;;7.50;99.90;;;;;;4831000;29;20038;-79
2021/11/13 11:45:23;;;;;;;54.65;25.67;;;7.50;99.90;;;;;;4816186;29;20035;-78
2021/11/13 11:47:50;;;;;;;57.40;26.08;;;7.50;99.90;;;;;;4813193;29;20299;-78
2021/11/13 11:50:23;;;;;;;59.03;28.30;;;7.40;99.90;;;;;;4809976;29;20042;-79
2021/11/13 11:53:06;;;;;;;68.90;29.10;;;7.40;99.90;;;;;;4812879;29;20047;-78
2021/11/13 11:55:33;;;;;;;71.68;31.27;;;7.40;99.90;;;;;;4799003;29;20330;-78
2021/11/13 11:58:02;;;;;;;67.97;29.17;;;7.30;99.90;;;;;;4815787;29;20034;-78
2021/11/13 12:00:32;;;;;;;72.57;31.20;;;7.30;99.90;;;;;;4816980;29;20066;-79
2021/11/13 12:03:00;;;;;;;68.07;30.77;;;7.30;99.90;;;;;;4830695;29;20062;-78
2021/11/13 12:05:34;;;;;;;69.35;30.25;;;7.30;99.90;;;;;;4815856;29;20042;-78
2021/11/13 12:08:16;;;;;;;78.32;31.48;;;7.30;99.90;;;;;;4816698;29;20218;-78
2021/11/13 12:10:43;;;;;;;69.88;30.02;;;7.40;99.90;;;;;;4815718;29;20334;-78
2021/11/13 12:13:14;;;;;;;72.05;34.60;;;7.40;99.90;;;;;;4799737;29;20287;-78
2021/11/13 12:15:44;;;;;;;71.72;31.98;;;7.50;99.90;;;;;;4815537;29;20097;-78
2021/11/13 12:18:15;;;;;;;63.13;29.15;;;7.50;99.90;;;;;;4812456;29;20027;-78
2021/11/13 12:20:42;;;;;;;64.70;30.80;;;7.50;99.90;;;;;;4814951;29;20031;-78
2021/11/13 12:23:14;;;;;;;59.03;27.75;;;7.40;99.90;;;;;;4799994;29;20038;-78
2021/11/13 12:25:54;;;;;;;57.33;24.92;;;7.40;99.90;;;;;;4798095;29;20042;-78
2021/11/13 12:28:22;;;;;;;46.70;22.10;;;7.40;99.90;;;;;;4837708;29;20061;-78
2021/11/13 12:31:05;;;;;;;;;;;7.40;99.90;;;;;;4815139;29;20045;-78
2021/11/13 12:33:31;;;;;;;50.05;22.65;;;7.40;99.90;;;;;;4809749;29;19920;-78
2021/11/13 12:36:06;;;;;;;56.83;24.20;;;7.40;99.90;;;;;;4795300;29;20322;-78
2021/11/13 12:38:48;;;;;;;51.00;23.25;;;7.40;99.90;;;;;;4815022;29;20360;-78
2021/11/13 12:41:18;;;;;;;50.78;24.35;;;7.40;99.90;;;;;;4794459;29;20094;-78
2021/11/13 12:43:55;;;;;;;51.42;22.65;;;7.40;99.90;;;;;;4814849;29;20342;-78
2021/11/13 12:46:34;;;;;;;48.72;20.77;;;7.50;99.90;;;;;;4814499;29;20067;-78
2021/11/13 12:51:56;;;;;;;44.47;20.52;;;7.40;99.90;;;;;;4815918;29;20080;-78
2021/11/13 12:54:52;;;;;;;39.88;19.35;;;7.50;99.90;;;;;;4814636;29;20034;-78
2021/11/13 12:57:28;;;;;;;48.42;20.40;;;7.60;99.90;;;;;;4814745;29;20255;-78
2021/11/13 12:59:55;;;;;;;42.58;20.30;;;7.60;99.90;;;;;;4814612;29;20066;-78
2021/11/13 13:02:22;;;;;;;42.30;20.52;;;7.70;99.90;;;;;;4814373;29;20027;-78
2021/11/13 13:04:48;;;;;;;51.03;21.60;;;7.70;99.90;;;;;;4799930;29;20046;-78
2021/11/13 13:07:16;;;;;;;49.65;22.17;;;7.70;99.90;;;;;;4814572;29;20043;-79
2021/11/13 13:09:56;;;;;;;46.38;21.05;;;7.60;99.90;;;;;;4814701;29;20046;-78
2021/11/13 13:12:28;;;;;;;41.42;19.77;;;7.60;99.90;;;;;;4829378;29;20035;-78
2021/11/13 13:15:02;;;;;;;44.63;20.77;;;7.50;99.90;;;;;;4814661;29;20032;-80
2021/11/13 13:17:30;;;;;;;40.28;20.60;;;7.50;99.90;;;;;;4814715;29;20226;-80
2021/11/13 13:19:56;;;;;;;55.05;20.77;;;7.60;99.90;;;;;;4803620;29;20046;-80
2021/11/13 13:22:23;;;;;;;52.92;25.70;;;7.60;99.90;;;;;;4813099;29;20221;-80
2021/11/13 13:24:55;;;;;;;82.47;36.27;;;7.70;99.90;;;;;;4812587;29;20050;-80
2021/11/13 13:27:21;;;;;;;46.13;21.05;;;7.70;99.90;;;;;;4813756;29;20348;-80
2021/11/13 13:30:00;;;;;;;44.70;21.15;;;7.70;99.90;;;;;;4814628;29;20042;-80
2021/11/13 13:32:27;;;;;;;41.38;19.25;;;7.80;99.90;;;;;;4814098;29;20097;-80
2021/11/13 13:34:59;;;;;;;38.75;17.48;;;7.80;99.90;;;;;;4814150;29;20334;-80
2021/11/13 13:37:29;;;;;;;38.28;19.88;;;7.80;99.90;;;;;;4813787;29;20109;-80
2021/11/13 13:39:58;;;;;;;36.72;19.95;;;7.90;99.90;;;;;;4813779;29;20023;-80
2021/11/13 13:42:37;;;;;;;44.83;20.45;;;7.80;99.90;;;;;;4813621;29;20050;-80
2021/11/13 13:45:06;;;;;;;41.90;21.73;;;7.70;99.90;;;;;;4813709;29;20041;-80
2021/11/13 13:47:32;;;;;;;57.08;29.17;;;7.60;99.90;;;;;;4825887;29;20055;-80
2021/11/13 13:50:00;;;;;;;48.58;21.50;;;7.60;99.90;;;;;;4813222;29;20030;-80
2021/11/13 13:52:38;;;;;;;43.03;19.60;;;7.60;99.90;;;;;;4792943;29;20105;-80
2021/11/13 13:55:12;;;;;;;40.20;19.35;;;7.60;99.90;;;;;;4829053;29;20038;-80
2021/11/13 13:57:38;;;;;;;48.40;20.17;;;7.60;99.90;;;;;;4813458;29;20076;-80
2021/11/13 14:00:07;;;;;;;40.72;17.95;;;7.60;99.90;;;;;;4814168;29;20219;-79
2021/11/13 14:02:42;;;;;;;44.92;20.98;;;7.70;99.90;;;;;;4814105;29;20142;-80
2021/11/13 14:05:18;;;;;;;48.00;20.85;;;7.70;99.90;;;;;;4815034;29;20057;-80
2021/11/13 14:07:44;;;;;;;47.70;19.50;;;7.70;99.90;;;;;;4813698;29;20037;-80
2021/11/13 14:10:13;;;;;;;44.63;20.95;;;7.70;99.90;;;;;;4798540;29;20050;-79
2021/11/13 14:12:47;;;;;;;53.60;20.48;;;7.70;99.90;;;;;;4795778;29;20043;-79
2021/11/13 14:15:25;;;;;;;39.95;19.38;;;7.70;99.90;;;;;;4812698;29;20043;-80
2021/11/13 14:18:04;;;;;;;47.63;21.20;;;7.70;99.90;;;;;;4805615;29;20073;-80
2021/11/13 14:20:31;;;;;;;45.20;23.00;;;7.80;99.90;;;;;;4813455;29;20023;-80
2021/11/13 14:23:00;;;;;;;44.95;20.73;;;7.80;99.90;;;;;;4798377;29;20050;-80
2021/11/13 14:25:28;;;;;;;46.22;18.92;;;7.80;99.90;;;;;;4816772;29;20148;-80
2021/11/13 14:27:54;;;;;;;37.20;18.38;;;7.80;99.90;;;;;;4813395;29;20330;-80
2021/11/13 14:30:21;;;;;;;33.72;17.85;;;7.70;99.90;;;;;;4813685;29;20044;-80
2021/11/13 14:32:52;;;;;;;38.00;17.60;;;7.80;99.90;;;;;;4828928;29;20079;-80
2021/11/13 14:35:19;;;;;;;38.88;16.88;;;7.70;99.90;;;;;;4813762;29;20034;-80
2021/11/13 14:37:45;;;;;;;35.83;17.00;;;7.70;99.90;;;;;;4813273;29;20320;-80
2021/11/13 14:40:11;;;;;;;37.30;17.13;;;7.70;99.90;;;;;;4813659;29;20083;-80
2021/11/13 14:42:38;;;;;;;40.17;19.30;;;7.70;99.90;;;;;;4828985;29;20053;-80
2021/11/13 14:45:05;;;;;;;;;;;7.80;99.90;;;;;;4814074;29;20045;-80
2021/11/13 14:47:39;;;;;;;;;;;7.80;99.90;;;;;;4815172;29;19928;-80
2021/11/13 14:50:13;;;;;;;;;;;7.80;99.90;;;;;;4813768;29;19940;-80
2021/11/13 14:52:51;;;;;;;44.85;18.88;;;7.70;99.90;;;;;;4828813;29;19959;-80
2021/11/13 14:55:26;;;;;;;36.72;18.00;;;7.80;99.90;;;;;;4810212;29;20038;-80
2021/11/13 14:57:56;;;;;;;43.78;19.88;;;7.80;99.90;;;;;;4828375;29;20041;-80
2021/11/13 15:00:29;;;;;;;42.70;20.02;;;7.80;99.90;;;;;;4814499;29;20058;-80
2021/11/13 15:03:10;;;;;;;39.15;19.63;;;7.80;99.90;;;;;;4813334;29;20322;-80
2021/11/13 15:05:51;;;;;;;45.40;20.95;;;7.80;99.90;;;;;;4813360;29;20109;-80
2021/11/13 15:08:25;;;;;;;42.72;20.98;;;7.80;99.90;;;;;;4806965;29;20152;-80
2021/11/13 15:10:54;;;;;;;38.30;18.38;;;7.80;99.90;;;;;;4811960;29;20039;-80
2021/11/13 15:13:23;;;;;;;39.45;18.90;;;7.80;99.90;;;;;;4830883;29;20035;-80
2021/11/13 15:15:50;;;;;;;40.42;20.60;;;7.80;99.90;;;;;;4816502;29;20035;-80
2021/11/13 15:18:17;;;;;;;43.83;19.33;;;7.80;99.90;;;;;;4801516;29;20037;-80
2021/11/13 15:20:49;;;;;;;40.25;20.58;;;7.90;99.90;;;;;;4801752;29;20035;-80
2021/11/13 15:23:22;;;;;;;43.60;20.42;;;7.90;99.90;;;;;;4814721;29;20039;-80
2021/11/13 15:25:48;;;;;;;40.47;19.20;;;7.90;99.90;;;;;;4815945;29;20122;-80
2021/11/13 15:28:16;;;;;;;40.17;19.35;;;7.90;99.90;;;;;;4831340;29;20031;-80
2021/11/13 15:30:54;;;;;;;42.67;19.48;;;7.90;99.90;;;;;;4817371;29;20038;-80
2021/11/13 15:33:26;;;;;;;42.47;19.42;;;8.00;99.90;;;;;;4816251;29;20031;-80
2021/11/13 15:35:58;;;;;;;43.17;21.25;;;8.00;99.90;;;;;;4816282;29;20043;-80
2021/11/13 15:38:29;;;;;;;49.97;24.02;;;7.90;99.90;;;;;;4816183;29;20288;-80
2021/11/13 15:40:55;;;;;;;56.15;29.88;;;7.90;99.90;;;;;;4817311;29;20125;-80
2021/11/13 15:43:24;;;;;;;68.13;33.75;;;7.90;99.90;;;;;;4816129;29;20326;-80
2021/11/13 15:45:59;;;;;;;43.75;22.23;;;8.00;99.90;;;;;;4816834;29;20322;-80
2021/11/13 15:48:27;;;;;;;36.45;19.73;;;8.00;99.90;;;;;;4814540;29;20314;-80
2021/11/13 15:51:08;;;;;;;43.53;21.42;;;8.10;99.90;;;;;;4815828;29;20039;-80
2021/11/13 15:53:39;;;;;;;48.55;23.83;;;8.00;99.90;;;;;;4815522;29;20325;-80
2021/11/13 15:56:10;;;;;;;44.95;21.98;;;8.00;99.90;;;;;;4815006;29;20102;-80
2021/11/13 15:58:37;;;;;;;39.47;20.67;;;8.00;99.90;;;;;;4796203;29;20038;-80
2021/11/13 16:01:03;;;;;;;49.15;22.90;;;7.90;99.90;;;;;;4815199;29;20031;-80
2021/11/13 16:03:29;;;;;;;54.00;25.17;;;7.90;99.90;;;;;;4799641;29;20079;-80
2021/11/13 16:05:55;;;;;;;53.95;26.88;;;8.00;99.90;;;;;;4800086;29;20034;-80
2021/11/13 16:08:23;;;;;;;53.70;25.67;;;8.00;99.90;;;;;;4799987;29;20127;-80
2021/11/13 16:10:49;;;;;;;50.03;24.08;;;7.90;99.90;;;;;;4815061;29;20046;-80
2021/11/13 16:13:15;;;;;;;48.00;25.48;;;7.90;99.90;;;;;;4817504;29;20043;-80
2021/11/13 16:15:40;;;;;;;49.55;25.15;;;7.90;99.90;;;;;;4814854;29;20061;-80
2021/11/13 16:18:06;;;;;;;53.35;25.70;;;7.90;99.90;;;;;;4814336;29;20027;-80
2021/11/13 16:20:32;;;;;;;50.97;24.52;;;8.00;99.90;;;;;;4814470;29;20038;-80
2021/11/13 16:22:58;;;;;;;53.65;26.30;;;8.00;99.90;;;;;;4814644;29;20035;-80
2021/11/13 16:25:24;;;;;;;58.78;26.17;;;8.00;99.90;;;;;;4799200;29;20042;-80
2021/11/13 16:27:53;;;;;;;57.47;28.48;;;8.00;99.90;;;;;;4800028;29;20110;-80
2021/11/13 16:30:20;;;;;;;55.83;27.42;;;7.90;99.90;;;;;;4799425;29;20038;-80